createdAt,value
2023-03-16T00:02:20.339Z,100385.22
2023-03-16T00:04:47.511Z,100394.50
2023-03-16T00:07:15.227Z,100391.03
2023-03-16T00:09:42.176Z,100391.19
2023-03-16T00:12:18.149Z,100396.66
2023-03-16T00:14:49.176Z,100398.78
2023-03-16T00:17:21.190Z,100402.59
2023-03-16T00:19:51.264Z,100402.69
2023-03-16T00:22:17.841Z,100405.97
2023-03-16T00:24:44.463Z,100410.22
2023-03-16T00:27:15.743Z,100403.41
2023-03-16T00:29:49.658Z,100413.28
2023-03-16T00:32:18.790Z,100413.53
2023-03-16T00:34:46.866Z,100416.81
2023-03-16T00:37:16.157Z,100413.28
2023-03-16T00:39:43.634Z,100416.28
2023-03-16T00:42:11.989Z,100424.75
2023-03-16T00:44:39.159Z,100415.06
2023-03-16T00:47:06.617Z,100420.22
2023-03-16T00:49:34.927Z,100421.16
2023-03-16T00:52:05.606Z,100430.41
2023-03-16T00:54:35.547Z,100427.50
2023-03-16T00:57:02.628Z,100422.88
2023-03-16T00:59:29.895Z,100425.53
2023-03-16T01:01:56.554Z,100423.22
2023-03-16T01:04:23.362Z,100424.00
2023-03-16T01:06:50.008Z,100430.59
2023-03-16T01:09:16.542Z,100434.25
2023-03-16T01:11:46.543Z,100437.72
2023-03-16T01:14:13.204Z,100439.34
2023-03-16T01:16:39.733Z,100439.25
2023-03-16T01:19:06.250Z,100435.56
2023-03-16T01:21:38.305Z,100445.72
2023-03-16T01:24:05.234Z,100446.59
2023-03-16T01:26:32.417Z,100446.44
2023-03-16T01:28:58.910Z,100449.78
2023-03-16T01:31:25.461Z,100447.22
2023-03-16T01:33:52.358Z,100451.69
2023-03-16T01:36:19.640Z,100451.25
2023-03-16T01:38:46.214Z,100456.41
2023-03-16T01:41:12.855Z,100468.91
2023-03-16T01:43:41.009Z,100469.72
2023-03-16T01:46:14.350Z,100469.72
2023-03-16T01:48:58.663Z,100465.56
2023-03-16T01:51:43.042Z,100467.75
2023-03-16T01:54:25.420Z,100469.00
2023-03-16T01:56:58.997Z,100474.16
2023-03-16T01:59:37.877Z,100475.75
2023-03-16T02:02:05.257Z,100483.59
2023-03-16T02:04:52.705Z,100480.75
2023-03-16T02:07:22.491Z,100479.88
2023-03-16T02:09:52.091Z,100476.28
2023-03-16T02:12:19.201Z,100477.47
2023-03-16T02:14:47.367Z,100477.56
2023-03-16T02:17:15.470Z,100486.97
2023-03-16T02:19:47.227Z,100484.56
2023-03-16T02:22:14.794Z,100482.81
2023-03-16T02:24:42.190Z,100483.13
2023-03-16T02:27:31.086Z,100478.78
2023-03-16T02:30:01.425Z,100489.03
2023-03-16T02:32:30.735Z,100487.25
2023-03-16T02:34:59.025Z,100488.94
2023-03-16T02:37:26.762Z,100488.16
2023-03-16T02:39:53.795Z,100492.41
2023-03-16T02:42:23.676Z,100490.72
2023-03-16T02:44:58.574Z,100494.34
2023-03-16T02:47:37.187Z,100506.31
2023-03-16T02:50:06.770Z,100495.88
2023-03-16T02:52:38.378Z,100498.19
2023-03-16T02:55:08.738Z,100498.56
2023-03-16T02:57:35.274Z,100507.44
2023-03-16T03:00:02.402Z,100512.16
2023-03-16T03:02:28.888Z,100497.38
2023-03-16T03:04:55.399Z,100505.84
2023-03-16T03:07:22.098Z,100511.00
2023-03-16T03:09:48.582Z,100499.69
2023-03-16T03:12:15.131Z,100506.84
2023-03-16T03:14:41.730Z,100505.75
2023-03-16T03:17:10.080Z,100513.50
2023-03-16T03:19:37.036Z,100512.59
2023-03-16T03:22:06.479Z,100514.66
2023-03-16T03:24:34.504Z,100512.88
2023-03-16T03:27:05.678Z,100516.41
2023-03-16T03:29:36.168Z,100517.84
2023-03-16T03:32:04.440Z,100532.88
2023-03-16T03:34:31.856Z,100520.00
2023-03-16T03:36:59.186Z,100525.97
2023-03-16T03:39:25.766Z,100530.03
2023-03-16T03:41:55.475Z,100529.94
2023-03-16T03:44:23.065Z,100536.00
2023-03-16T03:46:50.109Z,100533.13
2023-03-16T03:49:16.674Z,100535.53
2023-03-16T03:51:44.187Z,100537.44
2023-03-16T03:54:10.862Z,100537.34
2023-03-16T03:56:37.556Z,100527.09
2023-03-16T03:59:04.148Z,100530.47
2023-03-16T04:01:30.798Z,100536.16
2023-03-16T04:03:57.388Z,100531.97
2023-03-16T04:06:23.895Z,100535.00
2023-03-16T04:08:51.301Z,100532.69
2023-03-16T04:11:17.851Z,100536.75
2023-03-16T04:13:44.344Z,100536.16
2023-03-16T04:16:11.160Z,100544.59
2023-03-16T04:18:40.327Z,100544.06
2023-03-16T04:21:12.717Z,100548.94
2023-03-16T04:23:39.365Z,100549.75
2023-03-16T04:26:05.862Z,100540.91
2023-03-16T04:28:32.813Z,100559.06
2023-03-16T04:31:05.484Z,100547.78
2023-03-16T04:33:32.428Z,100557.47
2023-03-16T04:35:59.645Z,100556.84
2023-03-16T04:38:26.433Z,100559.63
2023-03-16T04:40:52.929Z,100562.53
2023-03-16T04:43:19.485Z,100571.13
2023-03-16T04:45:46.121Z,100568.41
2023-03-16T04:48:12.645Z,100574.41
2023-03-16T04:50:39.211Z,100579.56
2023-03-16T04:53:05.718Z,100572.75
2023-03-16T04:55:32.303Z,100584.72
2023-03-16T04:57:58.905Z,100579.38
2023-03-16T05:00:26.016Z,100580.91
2023-03-16T05:02:52.707Z,100583.56
2023-03-16T05:05:19.249Z,100576.28
2023-03-16T05:07:45.778Z,100579.06
2023-03-16T05:10:14.841Z,100577.38
2023-03-16T05:12:41.362Z,100580.78
2023-03-16T05:15:08.771Z,100579.34
2023-03-16T05:17:35.331Z,100591.72
2023-03-16T05:20:02.378Z,100587.91
2023-03-16T05:22:29.056Z,100580.56
2023-03-16T05:24:55.559Z,100590.44
2023-03-16T05:27:22.051Z,100589.00
2023-03-16T05:29:48.562Z,100584.91
2023-03-16T05:32:17.198Z,100591.34
2023-03-16T05:34:44.224Z,100597.66
2023-03-16T05:37:10.945Z,100593.66
2023-03-16T05:39:37.844Z,100592.34
2023-03-16T05:42:05.936Z,100594.53
2023-03-16T05:44:33.884Z,100592.50
2023-03-16T05:47:00.443Z,100592.16
2023-03-16T05:49:27.383Z,100595.25
2023-03-16T05:51:54.915Z,100598.53
2023-03-16T05:54:21.401Z,100600.84
2023-03-16T05:56:47.973Z,100604.91
2023-03-16T05:59:14.521Z,100607.53
2023-03-16T06:01:41.035Z,100609.09
2023-03-16T06:04:07.690Z,100613.41
2023-03-16T06:06:34.363Z,100615.75
2023-03-16T06:09:01.330Z,100624.59
2023-03-16T06:11:27.831Z,100626.53
2023-03-16T06:13:57.919Z,100622.41
2023-03-16T06:16:24.807Z,100628.25
2023-03-16T06:18:51.419Z,100630.22
2023-03-16T06:21:18.051Z,100637.13
2023-03-16T06:23:45.010Z,100650.78
2023-03-16T06:26:11.593Z,100643.78
2023-03-16T06:28:38.107Z,100650.47
2023-03-16T06:31:04.712Z,100659.16
2023-03-16T06:33:31.631Z,100666.59
2023-03-16T06:35:58.364Z,100664.53
2023-03-16T06:38:24.976Z,100660.22
2023-03-16T06:40:53.125Z,100666.81
2023-03-16T06:43:20.145Z,100661.22
2023-03-16T06:45:47.103Z,100670.03
2023-03-16T06:48:13.693Z,100667.03
2023-03-16T06:50:40.180Z,100669.84
2023-03-16T06:53:06.710Z,100672.44
2023-03-16T06:55:33.344Z,100676.91
2023-03-16T06:57:59.887Z,100684.66
2023-03-16T07:00:26.732Z,100684.47
2023-03-16T07:02:53.422Z,100693.06
2023-03-16T07:05:19.966Z,100679.53
2023-03-16T07:07:46.531Z,100691.00
2023-03-16T07:10:16.064Z,100702.25
2023-03-16T07:12:42.825Z,100689.91
2023-03-16T07:15:10.960Z,100691.69
2023-03-16T07:17:37.639Z,100702.44
2023-03-16T07:20:05.991Z,100698.91
2023-03-16T07:22:33.146Z,100706.19
2023-03-16T07:24:59.875Z,100710.28
2023-03-16T07:27:26.348Z,100712.63
2023-03-16T07:29:52.903Z,100711.13
2023-03-16T07:32:19.964Z,100705.97
2023-03-16T07:34:46.506Z,100713.00
2023-03-16T07:37:18.389Z,100712.47
2023-03-16T07:39:48.237Z,100717.25
2023-03-16T07:42:14.793Z,100718.28
2023-03-16T07:44:41.900Z,100722.63
2023-03-16T07:47:12.511Z,100723.88
2023-03-16T07:49:39.227Z,100721.78
2023-03-16T07:52:06.142Z,100725.72
2023-03-16T07:54:32.643Z,100722.22
2023-03-16T07:56:59.193Z,100727.03
2023-03-16T07:59:25.730Z,100723.75
2023-03-16T08:01:52.249Z,100732.25
2023-03-16T08:04:19.131Z,100731.81
2023-03-16T08:06:45.669Z,100739.81
2023-03-16T08:09:12.212Z,100736.16
2023-03-16T08:11:38.709Z,100732.97
2023-03-16T08:14:05.601Z,100728.66
2023-03-16T08:16:32.281Z,100726.19
2023-03-16T08:18:59.783Z,100742.78
2023-03-16T08:21:26.264Z,100737.88
2023-03-16T08:23:52.770Z,100741.22
2023-03-16T08:26:21.124Z,100740.53
2023-03-16T08:28:48.127Z,100742.16
2023-03-16T08:31:15.612Z,100737.53
2023-03-16T08:33:43.565Z,100729.78
2023-03-16T08:36:12.287Z,100742.53
2023-03-16T08:38:40.175Z,100743.31
2023-03-16T08:41:07.519Z,100749.06
2023-03-16T08:43:34.515Z,100754.78
2023-03-16T08:46:01.835Z,100749.59
2023-03-16T08:48:28.901Z,100751.88
2023-03-16T08:50:55.584Z,100755.56
2023-03-16T08:53:22.194Z,100752.84
2023-03-16T08:55:48.680Z,100754.84
2023-03-16T08:58:15.703Z,100752.31
2023-03-16T09:00:44.319Z,100758.19
2023-03-16T09:03:11.991Z,100760.50
2023-03-16T09:05:38.506Z,100761.91
2023-03-16T09:08:06.259Z,100756.03
2023-03-16T09:10:33.285Z,100760.31
2023-03-16T09:12:59.801Z,100752.84
2023-03-16T09:15:26.916Z,100751.75
2023-03-16T09:17:54.438Z,100756.13
2023-03-16T09:20:26.422Z,100751.44
2023-03-16T09:22:55.084Z,100752.72
2023-03-16T09:25:22.321Z,100753.31
2023-03-16T09:27:48.850Z,100751.63
2023-03-16T09:30:16.870Z,100750.59
2023-03-16T09:32:43.794Z,100747.91
2023-03-16T09:35:10.330Z,100744.34
2023-03-16T09:37:45.252Z,100745.06
2023-03-16T09:40:26.702Z,100751.59
2023-03-16T09:42:59.100Z,100753.50
2023-03-16T09:46:06.578Z,100742.88
2023-03-16T09:48:35.805Z,100743.84
2023-03-16T09:51:06.213Z,100749.56
2023-03-16T09:53:35.445Z,100761.34
2023-03-16T09:56:10.563Z,100741.16
2023-03-16T09:58:37.246Z,100751.81
2023-03-16T10:01:45.606Z,100750.75
2023-03-16T10:04:36.904Z,100758.94
2023-03-16T10:07:30.365Z,100764.31
2023-03-16T10:10:28.471Z,100756.84
2023-03-16T10:13:00.222Z,100763.84
2023-03-16T10:15:31.407Z,100765.88
2023-03-16T10:18:06.587Z,100763.19
2023-03-16T10:20:34.808Z,100764.94
2023-03-16T10:23:13.464Z,100774.66
2023-03-16T10:25:49.780Z,100772.69
2023-03-16T10:28:22.392Z,100764.44
2023-03-16T10:30:51.470Z,100758.84
2023-03-16T10:33:31.581Z,100761.91
2023-03-16T10:36:02.597Z,100757.91
2023-03-16T10:38:40.892Z,100755.19
2023-03-16T10:41:23.974Z,100744.34
2023-03-16T10:43:54.404Z,100753.97
2023-03-16T10:46:22.360Z,100759.56
2023-03-16T10:49:20.274Z,100756.59
2023-03-16T10:51:47.013Z,100761.50
2023-03-16T10:54:24.900Z,100758.03
2023-03-16T10:56:51.605Z,100749.69
2023-03-16T10:59:32.041Z,100764.59
2023-03-16T11:02:00.231Z,100751.16
2023-03-16T11:04:31.633Z,100764.25
2023-03-16T11:06:58.887Z,100753.91
2023-03-16T11:09:33.065Z,100753.16
2023-03-16T11:12:01.471Z,100758.31
2023-03-16T11:14:29.469Z,100756.69
2023-03-16T11:17:16.163Z,100754.34
2023-03-16T11:19:53.292Z,100746.94
2023-03-16T11:22:24.419Z,100747.47
2023-03-16T11:25:03.055Z,100754.94
2023-03-16T11:27:49.153Z,100741.38
2023-03-16T11:30:31.095Z,100751.16
2023-03-16T11:33:00.683Z,100742.75
2023-03-16T11:35:59.792Z,100734.03
2023-03-16T11:38:34.636Z,100735.91
2023-03-16T11:41:12.202Z,100729.72
2023-03-16T11:43:57.041Z,100734.88
2023-03-16T11:46:27.669Z,100726.31
2023-03-16T11:49:24.753Z,100725.34
2023-03-16T11:52:15.453Z,100718.41
2023-03-16T11:54:55.489Z,100740.09
2023-03-16T11:57:41.825Z,100729.28
2023-03-16T12:00:20.565Z,100730.25
2023-03-16T12:03:26.536Z,100720.88
2023-03-16T12:06:07.785Z,100708.59
2023-03-16T12:08:45.087Z,100709.50
2023-03-16T12:11:25.511Z,100707.72
2023-03-16T12:14:06.608Z,100717.06
2023-03-16T12:16:49.826Z,100721.25
2023-03-16T12:19:23.035Z,100713.94
2023-03-16T12:22:01.259Z,100709.84
2023-03-16T12:24:35.806Z,100703.22
2023-03-16T12:27:02.709Z,100703.81
2023-03-16T12:29:52.555Z,100705.97
2023-03-16T12:32:45.613Z,100706.06
2023-03-16T12:35:34.008Z,100704.44
2023-03-16T12:38:15.680Z,100707.66
2023-03-16T12:40:50.044Z,100710.97
2023-03-16T12:43:31.463Z,100706.13
2023-03-16T12:46:18.630Z,100700.09
2023-03-16T12:48:54.155Z,100693.59
2023-03-16T12:51:20.644Z,100696.41
2023-03-16T12:53:55.404Z,100687.31
2023-03-16T12:56:33.538Z,100692.94
2023-03-16T12:59:03.221Z,100693.41
2023-03-16T13:01:38.030Z,100694.56
2023-03-16T13:04:32.553Z,100708.50
2023-03-16T13:07:09.608Z,100699.56
2023-03-16T13:09:42.407Z,100690.13
2023-03-16T13:12:10.557Z,100695.06
2023-03-16T13:14:44.745Z,100694.09
2023-03-16T13:17:17.415Z,100699.94
2023-03-16T13:19:47.871Z,100706.75
2023-03-16T13:22:28.017Z,100698.63
2023-03-16T13:25:14.102Z,100703.00
2023-03-16T13:27:44.660Z,100704.94
2023-03-16T13:30:28.749Z,100706.16
2023-03-16T13:33:03.724Z,100705.75
2023-03-16T13:35:30.495Z,100702.19
2023-03-16T13:38:05.818Z,100701.63
2023-03-16T13:40:33.196Z,100700.97
2023-03-16T13:43:01.854Z,100696.84
2023-03-16T13:45:33.395Z,100700.78
2023-03-16T13:48:03.882Z,100704.75
2023-03-16T13:50:35.218Z,100702.88
2023-03-16T13:53:14.689Z,100713.84
2023-03-16T13:55:44.734Z,100704.50
2023-03-16T13:58:23.577Z,100698.38
2023-03-16T14:00:50.144Z,100705.00
2023-03-16T14:03:19.407Z,100701.28
2023-03-16T14:05:47.589Z,100709.13
2023-03-16T14:08:21.613Z,100703.84
2023-03-16T14:10:49.380Z,100704.97
2023-03-16T14:13:28.125Z,100694.38
2023-03-16T14:15:57.211Z,100695.09
2023-03-16T14:18:34.531Z,100696.78
2023-03-16T14:21:06.947Z,100690.38
2023-03-16T14:23:38.031Z,100685.41
2023-03-16T14:26:06.823Z,100682.84
2023-03-16T14:28:34.279Z,100680.25
2023-03-16T14:31:07.460Z,100678.03
2023-03-16T14:33:41.499Z,100674.75
2023-03-16T14:36:16.501Z,100673.97
2023-03-16T14:38:45.290Z,100662.50
2023-03-16T14:41:20.736Z,100656.44
2023-03-16T14:44:06.309Z,100662.75
2023-03-16T14:46:38.054Z,100653.78
2023-03-16T14:49:43.325Z,100661.41
2023-03-16T14:52:21.724Z,100657.31
2023-03-16T14:54:48.282Z,100656.25
2023-03-16T14:57:16.979Z,100661.28
2023-03-16T14:59:43.674Z,100657.00
2023-03-16T15:02:17.093Z,100670.25
2023-03-16T15:04:44.524Z,100666.66
2023-03-16T15:07:22.477Z,100664.75
2023-03-16T15:09:50.799Z,100655.91
2023-03-16T15:12:19.739Z,100658.53
2023-03-16T15:15:05.645Z,100656.81
2023-03-16T15:17:32.763Z,100661.03
2023-03-16T15:19:59.794Z,100665.19
2023-03-16T15:22:35.699Z,100657.41
2023-03-16T15:25:27.403Z,100657.16
2023-03-16T15:27:54.538Z,100656.84
2023-03-16T15:30:26.825Z,100669.06
2023-03-16T15:32:53.570Z,100657.63
2023-03-16T15:35:20.822Z,100666.34
2023-03-16T15:37:47.790Z,100665.97
2023-03-16T15:40:26.308Z,100673.94
2023-03-16T15:42:54.433Z,100667.06
2023-03-16T15:45:23.003Z,100661.66
2023-03-16T15:47:51.194Z,100660.56
2023-03-16T15:50:20.962Z,100670.00
2023-03-16T15:52:51.393Z,100669.78
2023-03-16T15:55:22.686Z,100670.69
2023-03-16T15:57:55.777Z,100668.06
2023-03-16T16:00:30.827Z,100669.75
2023-03-16T16:02:58.764Z,100668.78
2023-03-16T16:05:25.937Z,100673.88
2023-03-16T16:07:53.515Z,100666.69
2023-03-16T16:10:20.783Z,100673.50
2023-03-16T16:12:52.766Z,100672.38
2023-03-16T16:15:26.124Z,100673.91
2023-03-16T16:18:16.395Z,100678.13
2023-03-16T16:20:41.145Z,100665.63
2023-03-16T16:23:10.517Z,100676.66
2023-03-16T16:25:41.630Z,100673.84
2023-03-16T16:28:23.679Z,100673.50
2023-03-16T16:30:51.087Z,100668.81
2023-03-16T16:33:35.976Z,100674.00
2023-03-16T16:36:13.292Z,100671.31
2023-03-16T16:38:39.875Z,100672.00
2023-03-16T16:41:15.680Z,100669.06
2023-03-16T16:43:47.766Z,100674.94
2023-03-16T16:46:20.221Z,100677.91
2023-03-16T16:48:48.954Z,100674.81
2023-03-16T16:51:21.833Z,100686.56
2023-03-16T16:53:49.423Z,100681.78
2023-03-16T16:56:18.649Z,100677.78
2023-03-16T16:58:46.511Z,100674.88
2023-03-16T17:01:16.089Z,100676.25
2023-03-16T17:03:42.827Z,100682.91
2023-03-16T17:06:17.038Z,100680.69
2023-03-16T17:08:47.406Z,100688.22
2023-03-16T17:11:22.005Z,100680.22
2023-03-16T17:13:50.651Z,100682.81
2023-03-16T17:16:18.565Z,100680.59
2023-03-16T17:18:45.419Z,100676.75
2023-03-16T17:21:20.776Z,100680.66
2023-03-16T17:23:49.108Z,100689.56
2023-03-16T17:26:19.250Z,100687.94
2023-03-16T17:28:51.964Z,100693.75
2023-03-16T17:31:24.601Z,100703.69
2023-03-16T17:33:52.661Z,100701.53
2023-03-16T17:36:20.752Z,100702.88
2023-03-16T17:38:48.226Z,100699.22
2023-03-16T17:41:22.353Z,100704.88
2023-03-16T17:43:50.964Z,100702.09
2023-03-16T17:46:20.416Z,100700.84
2023-03-16T17:48:47.850Z,100702.91
2023-03-16T17:51:16.602Z,100700.94
2023-03-16T17:53:44.414Z,100705.63
2023-03-16T17:56:19.775Z,100701.22
2023-03-16T17:58:54.116Z,100710.91
2023-03-16T18:01:24.765Z,100708.25
2023-03-16T18:03:51.529Z,100702.69
2023-03-16T18:06:24.728Z,100705.22
2023-03-16T18:08:51.691Z,100707.69
2023-03-16T18:11:32.505Z,100717.03
2023-03-16T18:13:59.314Z,100704.31
2023-03-16T18:16:28.546Z,100719.63
2023-03-16T18:19:00.120Z,100715.41
2023-03-16T18:21:28.488Z,100712.06
2023-03-16T18:23:55.181Z,100712.38
2023-03-16T18:26:23.958Z,100715.75
2023-03-16T18:28:51.429Z,100721.59
2023-03-16T18:31:21.738Z,100718.66
2023-03-16T18:33:55.216Z,100721.81
2023-03-16T18:36:29.956Z,100724.91
2023-03-16T18:38:59.750Z,100720.47
2023-03-16T18:41:33.712Z,100719.13
2023-03-16T18:44:05.818Z,100721.84
2023-03-16T18:46:35.441Z,100722.66
2023-03-16T18:49:18.795Z,100716.19
2023-03-16T18:51:52.826Z,100711.38
2023-03-16T18:54:25.451Z,100709.97
2023-03-16T18:56:53.874Z,100713.69
2023-03-16T18:59:21.102Z,100719.19
2023-03-16T19:01:47.899Z,100711.28
2023-03-16T19:04:19.862Z,100711.25
2023-03-16T19:09:23.006Z,100715.88
2023-03-16T19:11:50.370Z,100707.81
2023-03-16T19:14:19.912Z,100717.22
2023-03-16T19:16:46.729Z,100711.47
2023-03-16T19:19:15.228Z,100704.28
2023-03-16T19:21:43.310Z,100706.22
2023-03-16T19:24:21.502Z,100708.75
2023-03-16T19:26:48.482Z,100709.03
2023-03-16T19:29:15.929Z,100712.84
2023-03-16T19:31:43.799Z,100710.41
2023-03-16T19:34:19.500Z,100709.44
2023-03-16T19:36:47.554Z,100713.16
2023-03-16T19:39:17.114Z,100710.06
2023-03-16T19:41:47.741Z,100706.88
2023-03-16T19:44:17.540Z,100709.59
2023-03-16T19:46:44.612Z,100713.59
2023-03-16T19:49:19.842Z,100712.13
2023-03-16T19:51:47.771Z,100711.31
2023-03-16T19:54:23.737Z,100722.72
2023-03-16T19:56:52.580Z,100725.63
2023-03-16T19:59:20.265Z,100725.00
2023-03-16T20:01:47.217Z,100720.63
2023-03-16T20:04:25.255Z,100725.91
2023-03-16T20:06:52.060Z,100732.50
2023-03-16T20:09:18.686Z,100728.50
2023-03-16T20:11:46.068Z,100741.31
2023-03-16T20:14:29.285Z,100731.00
2023-03-16T20:16:56.087Z,100734.47
2023-03-16T20:19:23.197Z,100730.69
2023-03-16T20:21:49.922Z,100725.97
2023-03-16T20:24:19.430Z,100728.56
2023-03-16T20:26:48.256Z,100724.41
2023-03-16T20:29:39.194Z,100721.97
2023-03-16T20:32:14.506Z,100719.47
2023-03-16T20:34:41.068Z,100721.69
2023-03-16T20:37:25.004Z,100717.38
2023-03-16T20:39:53.889Z,100720.03
2023-03-16T20:42:25.939Z,100720.25
2023-03-16T20:44:52.821Z,100715.06
2023-03-16T20:47:22.899Z,100716.84
2023-03-16T20:49:50.832Z,100705.16
2023-03-16T20:52:20.462Z,100712.47
2023-03-16T20:54:48.207Z,100706.44
2023-03-16T20:57:24.267Z,100713.47
2023-03-16T20:59:52.324Z,100709.16
2023-03-16T21:02:36.441Z,100723.56
2023-03-16T21:05:05.577Z,100713.47
2023-03-16T21:07:32.295Z,100710.84
2023-03-16T21:09:58.881Z,100701.97
2023-03-16T21:12:32.053Z,100708.03
2023-03-16T21:15:00.215Z,100703.81
2023-03-16T21:17:34.662Z,100708.78
2023-03-16T21:20:01.466Z,100699.16
2023-03-16T21:22:30.304Z,100699.03
2023-03-16T21:24:57.617Z,100688.69
2023-03-16T21:27:26.828Z,100686.84
2023-03-16T21:29:55.192Z,100675.22
2023-03-16T21:32:25.990Z,100672.63
2023-03-16T21:34:53.226Z,100672.56
2023-03-16T21:37:23.957Z,100672.78
2023-03-16T21:39:53.920Z,100668.03
2023-03-16T21:42:20.659Z,100680.06
2023-03-16T21:44:47.346Z,100670.88
2023-03-16T21:47:26.503Z,100668.94
2023-03-16T21:49:54.800Z,100676.50
2023-03-16T21:52:26.803Z,100664.84
2023-03-16T21:54:54.581Z,100674.91
2023-03-16T21:57:21.665Z,100673.13
2023-03-16T21:59:48.505Z,100674.69
2023-03-16T22:02:20.171Z,100669.44
2023-03-16T22:04:47.322Z,100663.13
2023-03-16T22:07:14.351Z,100672.13
2023-03-16T22:09:41.154Z,100672.84
2023-03-16T22:12:11.441Z,100667.91
2023-03-16T22:14:38.340Z,100674.47
2023-03-16T22:17:06.638Z,100682.66
2023-03-16T22:19:34.176Z,100679.50
2023-03-16T22:22:00.886Z,100685.81
2023-03-16T22:24:30.620Z,100686.84
2023-03-16T22:26:58.118Z,100676.59
2023-03-16T22:29:30.285Z,100676.75
2023-03-16T22:32:07.638Z,100673.09
2023-03-16T22:34:43.801Z,100672.28
2023-03-16T22:37:13.214Z,100684.38
2023-03-16T22:39:44.160Z,100681.00
2023-03-16T22:42:32.128Z,100691.44
2023-03-16T22:44:58.930Z,100683.19
2023-03-16T22:47:33.904Z,100674.94
2023-03-16T22:50:00.460Z,100667.09
2023-03-16T22:52:30.885Z,100666.63
2023-03-16T22:55:00.148Z,100665.97
2023-03-16T22:57:27.562Z,100676.31
2023-03-16T22:59:54.150Z,100685.63
2023-03-16T23:02:24.559Z,100686.50
2023-03-16T23:04:51.170Z,100690.00
2023-03-16T23:07:18.228Z,100690.72
2023-03-16T23:09:44.777Z,100694.59
2023-03-16T23:12:17.352Z,100707.25
2023-03-16T23:14:43.900Z,100706.19
2023-03-16T23:17:22.261Z,100717.34
2023-03-16T23:19:48.954Z,100719.75
2023-03-16T23:22:15.629Z,100720.47
2023-03-16T23:24:42.487Z,100715.94
2023-03-16T23:27:18.887Z,100726.47
2023-03-16T23:29:46.042Z,100718.63
2023-03-16T23:32:14.744Z,100707.69
2023-03-16T23:34:41.514Z,100708.06
2023-03-16T23:37:08.669Z,100700.28
2023-03-16T23:39:35.171Z,100699.56
2023-03-16T23:42:05.104Z,100691.19
2023-03-16T23:44:31.694Z,100684.97
2023-03-16T23:46:59.863Z,100679.16
2023-03-16T23:49:30.636Z,100674.13
2023-03-16T23:51:58.886Z,100662.13
2023-03-16T23:54:29.647Z,100660.31
2023-03-16T23:56:56.392Z,100666.47
2023-03-16T23:59:23.629Z,100665.84
